sensor_id;sensor_type;location;lat;lon;timestamp;P1;durP1;ratioP1;P2;durP2;ratioP2
32535;SDS011;18974;50.838;4.636;2022-12-18T00:01:25;60.33;;;23.92;;
32535;SDS011;18974;50.838;4.636;2022-12-18T00:03:56;65.10;;;24.33;;
32535;SDS011;18974;50.838;4.636;2022-12-18T00:06:23;65.97;;;24.83;;
32535;SDS011;18974;50.838;4.636;2022-12-18T00:08:50;63.00;;;23.15;;
32535;SDS011;18974;50.838;4.636;2022-12-18T00:11:17;62.90;;;22.27;;
32535;SDS011;18974;50.838;4.636;2022-12-18T00:13:44;62.70;;;23.17;;
32535;SDS011;18974;50.838;4.636;2022-12-18T00:16:12;59.58;;;21.90;;
32535;SDS011;18974;50.838;4.636;2022-12-18T00:18:39;61.33;;;23.08;;
32535;SDS011;18974;50.838;4.636;2022-12-18T00:21:06;64.15;;;23.17;;
32535;SDS011;18974;50.838;4.636;2022-12-18T00:23:34;60.83;;;22.33;;
32535;SDS011;18974;50.838;4.636;2022-12-18T00:26:01;67.43;;;23.55;;
32535;SDS011;18974;50.838;4.636;2022-12-18T00:28:29;57.25;;;22.17;;
32535;SDS011;18974;50.838;4.636;2022-12-18T00:31:15;60.25;;;23.48;;
32535;SDS011;18974;50.838;4.636;2022-12-18T00:33:42;64.85;;;23.27;;
32535;SDS011;18974;50.838;4.636;2022-12-18T00:36:15;63.03;;;22.80;;
32535;SDS011;18974;50.838;4.636;2022-12-18T00:38:43;54.75;;;21.65;;
32535;SDS011;18974;50.838;4.636;2022-12-18T00:41:10;88.38;;;29.02;;
32535;SDS011;18974;50.838;4.636;2022-12-18T00:43:37;76.53;;;28.35;;
32535;SDS011;18974;50.838;4.636;2022-12-18T00:46:03;68.30;;;25.70;;
32535;SDS011;18974;50.838;4.636;2022-12-18T00:48:29;76.30;;;26.10;;
32535;SDS011;18974;50.838;4.636;2022-12-18T00:50:55;72.30;;;25.60;;
32535;SDS011;18974;50.838;4.636;2022-12-18T00:53:21;69.00;;;24.30;;
32535;SDS011;18974;50.838;4.636;2022-12-18T00:55:47;64.18;;;22.92;;
32535;SDS011;18974;50.838;4.636;2022-12-18T00:58:13;61.80;;;23.00;;
32535;SDS011;18974;50.838;4.636;2022-12-18T01:00:40;70.05;;;23.98;;
32535;SDS011;18974;50.838;4.636;2022-12-18T01:03:06;63.05;;;23.13;;
32535;SDS011;18974;50.838;4.636;2022-12-18T01:05:32;69.07;;;24.63;;
32535;SDS011;18974;50.838;4.636;2022-12-18T01:07:58;58.15;;;22.75;;
32535;SDS011;18974;50.838;4.636;2022-12-18T01:10:24;57.92;;;20.65;;
32535;SDS011;18974;50.838;4.636;2022-12-18T01:12:50;53.08;;;19.58;;
32535;SDS011;18974;50.838;4.636;2022-12-18T01:15:17;53.35;;;19.75;;
32535;SDS011;18974;50.838;4.636;2022-12-18T01:17:43;54.53;;;21.10;;
32535;SDS011;18974;50.838;4.636;2022-12-18T01:20:09;60.90;;;20.60;;
32535;SDS011;18974;50.838;4.636;2022-12-18T01:22:36;56.33;;;22.85;;
32535;SDS011;18974;50.838;4.636;2022-12-18T01:25:03;52.63;;;20.30;;
32535;SDS011;18974;50.838;4.636;2022-12-18T01:27:29;57.60;;;21.27;;
32535;SDS011;18974;50.838;4.636;2022-12-18T01:29:56;63.28;;;20.55;;
32535;SDS011;18974;50.838;4.636;2022-12-18T01:32:21;54.40;;;21.48;;
32535;SDS011;18974;50.838;4.636;2022-12-18T01:34:47;57.33;;;20.98;;
32535;SDS011;18974;50.838;4.636;2022-12-18T01:37:14;58.80;;;21.33;;
32535;SDS011;18974;50.838;4.636;2022-12-18T01:39:39;57.72;;;20.25;;
32535;SDS011;18974;50.838;4.636;2022-12-18T01:42:09;58.40;;;21.38;;
32535;SDS011;18974;50.838;4.636;2022-12-18T01:49:51;71.30;;;26.38;;
32535;SDS011;18974;50.838;4.636;2022-12-18T01:52:18;74.07;;;25.20;;
32535;SDS011;18974;50.838;4.636;2022-12-18T01:54:45;62.00;;;23.15;;
32535;SDS011;18974;50.838;4.636;2022-12-18T01:57:12;56.42;;;22.08;;
32535;SDS011;18974;50.838;4.636;2022-12-18T01:59:38;51.17;;;19.30;;
32535;SDS011;18974;50.838;4.636;2022-12-18T02:02:06;55.63;;;18.85;;
32535;SDS011;18974;50.838;4.636;2022-12-18T02:04:32;50.50;;;18.35;;
32535;SDS011;18974;50.838;4.636;2022-12-18T02:07:32;53.08;;;19.58;;
32535;SDS011;18974;50.838;4.636;2022-12-18T02:10:14;55.65;;;18.02;;
32535;SDS011;18974;50.838;4.636;2022-12-18T02:13:07;51.75;;;19.80;;
32535;SDS011;18974;50.838;4.636;2022-12-18T02:15:41;55.92;;;20.92;;
32535;SDS011;18974;50.838;4.636;2022-12-18T02:18:18;52.22;;;20.27;;
32535;SDS011;18974;50.838;4.636;2022-12-18T02:20:54;49.85;;;19.55;;
32535;SDS011;18974;50.838;4.636;2022-12-18T02:26:38;53.10;;;18.77;;
32535;SDS011;18974;50.838;4.636;2022-12-18T02:29:20;52.05;;;19.88;;
32535;SDS011;18974;50.838;4.636;2022-12-18T02:31:53;49.63;;;18.77;;
32535;SDS011;18974;50.838;4.636;2022-12-18T02:34:22;53.47;;;19.70;;
32535;SDS011;18974;50.838;4.636;2022-12-18T02:36:52;54.60;;;18.08;;
32535;SDS011;18974;50.838;4.636;2022-12-18T02:39:19;51.85;;;19.35;;
32535;SDS011;18974;50.838;4.636;2022-12-18T02:41:47;63.10;;;20.17;;
32535;SDS011;18974;50.838;4.636;2022-12-18T02:44:13;52.47;;;19.05;;
32535;SDS011;18974;50.838;4.636;2022-12-18T03:00:18;47.53;;;17.25;;
32535;SDS011;18974;50.838;4.636;2022-12-18T03:05:35;41.30;;;16.95;;
32535;SDS011;18974;50.838;4.636;2022-12-18T03:08:10;42.97;;;16.17;;
32535;SDS011;18974;50.838;4.636;2022-12-18T03:10:42;44.22;;;17.02;;
32535;SDS011;18974;50.838;4.636;2022-12-18T03:13:20;44.22;;;16.20;;
32535;SDS011;18974;50.838;4.636;2022-12-18T03:15:52;48.50;;;17.27;;
32535;SDS011;18974;50.838;4.636;2022-12-18T03:18:24;50.33;;;17.10;;
32535;SDS011;18974;50.838;4.636;2022-12-18T03:21:02;45.28;;;17.25;;
32535;SDS011;18974;50.838;4.636;2022-12-18T03:23:32;44.25;;;16.73;;
32535;SDS011;18974;50.838;4.636;2022-12-18T03:26:07;46.60;;;16.90;;
32535;SDS011;18974;50.838;4.636;2022-12-18T03:28:36;55.03;;;19.23;;
32535;SDS011;18974;50.838;4.636;2022-12-18T03:31:04;54.22;;;18.13;;
32535;SDS011;18974;50.838;4.636;2022-12-18T03:33:37;51.63;;;18.75;;
32535;SDS011;18974;50.838;4.636;2022-12-18T03:36:07;49.10;;;18.50;;
32535;SDS011;18974;50.838;4.636;2022-12-18T03:38:33;45.33;;;17.38;;
32535;SDS011;18974;50.838;4.636;2022-12-18T03:43:52;54.60;;;18.73;;
32535;SDS011;18974;50.838;4.636;2022-12-18T03:46:25;48.60;;;16.77;;
32535;SDS011;18974;50.838;4.636;2022-12-18T03:48:52;48.25;;;17.10;;
32535;SDS011;18974;50.838;4.636;2022-12-18T03:51:39;54.85;;;20.35;;
32535;SDS011;18974;50.838;4.636;2022-12-18T03:54:12;50.63;;;18.20;;
32535;SDS011;18974;50.838;4.636;2022-12-18T03:56:40;50.78;;;18.65;;
32535;SDS011;18974;50.838;4.636;2022-12-18T03:59:11;47.65;;;18.60;;
32535;SDS011;18974;50.838;4.636;2022-12-18T04:01:41;56.53;;;18.88;;
32535;SDS011;18974;50.838;4.636;2022-12-18T04:04:11;52.50;;;18.83;;
32535;SDS011;18974;50.838;4.636;2022-12-18T04:06:39;49.08;;;18.23;;
32535;SDS011;18974;50.838;4.636;2022-12-18T04:09:06;53.88;;;19.15;;
32535;SDS011;18974;50.838;4.636;2022-12-18T04:11:32;53.53;;;18.85;;
32535;SDS011;18974;50.838;4.636;2022-12-18T04:13:58;51.60;;;18.35;;
32535;SDS011;18974;50.838;4.636;2022-12-18T04:16:24;59.33;;;18.30;;
32535;SDS011;18974;50.838;4.636;2022-12-18T04:18:51;57.20;;;19.65;;
32535;SDS011;18974;50.838;4.636;2022-12-18T04:21:17;50.15;;;17.33;;
32535;SDS011;18974;50.838;4.636;2022-12-18T04:23:42;49.78;;;18.55;;
32535;SDS011;18974;50.838;4.636;2022-12-18T04:26:08;45.08;;;17.95;;
32535;SDS011;18974;50.838;4.636;2022-12-18T04:28:34;44.70;;;17.33;;
32535;SDS011;18974;50.838;4.636;2022-12-18T04:31:00;47.83;;;17.20;;
32535;SDS011;18974;50.838;4.636;2022-12-18T04:33:25;45.75;;;16.63;;
32535;SDS011;18974;50.838;4.636;2022-12-18T04:35:51;46.85;;;17.70;;
32535;SDS011;18974;50.838;4.636;2022-12-18T04:38:17;46.35;;;18.45;;
32535;SDS011;18974;50.838;4.636;2022-12-18T04:40:42;44.08;;;17.27;;
32535;SDS011;18974;50.838;4.636;2022-12-18T04:43:08;40.63;;;15.20;;
32535;SDS011;18974;50.838;4.636;2022-12-18T04:45:34;47.70;;;16.58;;
32535;SDS011;18974;50.838;4.636;2022-12-18T04:48:00;43.58;;;17.17;;
32535;SDS011;18974;50.838;4.636;2022-12-18T04:50:26;41.08;;;15.88;;
32535;SDS011;18974;50.838;4.636;2022-12-18T04:52:53;39.22;;;16.60;;
32535;SDS011;18974;50.838;4.636;2022-12-18T04:55:18;54.53;;;15.98;;
32535;SDS011;18974;50.838;4.636;2022-12-18T04:57:44;40.00;;;14.73;;
32535;SDS011;18974;50.838;4.636;2022-12-18T05:00:10;40.78;;;13.90;;
32535;SDS011;18974;50.838;4.636;2022-12-18T05:02:36;41.97;;;15.15;;
32535;SDS011;18974;50.838;4.636;2022-12-18T05:05:02;45.42;;;15.43;;
32535;SDS011;18974;50.838;4.636;2022-12-18T05:07:27;42.00;;;14.90;;
32535;SDS011;18974;50.838;4.636;2022-12-18T05:09:53;43.67;;;14.52;;
32535;SDS011;18974;50.838;4.636;2022-12-18T05:12:19;49.03;;;16.75;;
32535;SDS011;18974;50.838;4.636;2022-12-18T05:14:44;42.17;;;16.00;;
32535;SDS011;18974;50.838;4.636;2022-12-18T05:17:10;43.97;;;15.35;;
32535;SDS011;18974;50.838;4.636;2022-12-18T05:19:35;52.97;;;18.52;;
32535;SDS011;18974;50.838;4.636;2022-12-18T05:22:01;47.97;;;18.30;;
32535;SDS011;18974;50.838;4.636;2022-12-18T05:24:27;49.30;;;17.98;;
32535;SDS011;18974;50.838;4.636;2022-12-18T05:26:52;61.75;;;18.92;;
32535;SDS011;18974;50.838;4.636;2022-12-18T05:29:18;56.63;;;17.98;;
32535;SDS011;18974;50.838;4.636;2022-12-18T05:31:43;50.58;;;18.38;;
32535;SDS011;18974;50.838;4.636;2022-12-18T05:34:09;61.00;;;19.20;;
32535;SDS011;18974;50.838;4.636;2022-12-18T05:36:35;53.83;;;19.67;;
32535;SDS011;18974;50.838;4.636;2022-12-18T05:39:00;59.50;;;19.20;;
32535;SDS011;18974;50.838;4.636;2022-12-18T05:41:26;59.35;;;20.65;;
32535;SDS011;18974;50.838;4.636;2022-12-18T05:43:52;57.95;;;20.05;;
32535;SDS011;18974;50.838;4.636;2022-12-18T05:46:18;59.38;;;19.52;;
32535;SDS011;18974;50.838;4.636;2022-12-18T05:48:44;58.83;;;18.67;;
32535;SDS011;18974;50.838;4.636;2022-12-18T05:51:11;58.35;;;21.10;;
32535;SDS011;18974;50.838;4.636;2022-12-18T05:53:39;50.78;;;18.77;;
32535;SDS011;18974;50.838;4.636;2022-12-18T05:56:09;55.67;;;19.65;;
32535;SDS011;18974;50.838;4.636;2022-12-18T05:58:37;45.42;;;18.58;;
32535;SDS011;18974;50.838;4.636;2022-12-18T06:01:10;47.40;;;17.50;;
32535;SDS011;18974;50.838;4.636;2022-12-18T06:03:51;50.67;;;18.63;;
32535;SDS011;18974;50.838;4.636;2022-12-18T06:06:21;47.13;;;18.00;;
32535;SDS011;18974;50.838;4.636;2022-12-18T06:08:49;53.35;;;18.52;;
32535;SDS011;18974;50.838;4.636;2022-12-18T06:11:16;57.20;;;19.23;;
32535;SDS011;18974;50.838;4.636;2022-12-18T06:13:44;51.53;;;18.75;;
32535;SDS011;18974;50.838;4.636;2022-12-18T06:16:10;45.83;;;17.88;;
32535;SDS011;18974;50.838;4.636;2022-12-18T06:18:36;46.80;;;18.48;;
32535;SDS011;18974;50.838;4.636;2022-12-18T06:21:01;51.17;;;18.60;;
32535;SDS011;18974;50.838;4.636;2022-12-18T06:23:27;43.40;;;17.38;;
32535;SDS011;18974;50.838;4.636;2022-12-18T06:25:53;47.20;;;17.95;;
32535;SDS011;18974;50.838;4.636;2022-12-18T06:28:18;40.40;;;16.58;;
32535;SDS011;18974;50.838;4.636;2022-12-18T06:30:45;50.13;;;17.55;;
32535;SDS011;18974;50.838;4.636;2022-12-18T06:33:11;49.42;;;17.77;;
32535;SDS011;18974;50.838;4.636;2022-12-18T06:35:37;56.42;;;20.08;;
32535;SDS011;18974;50.838;4.636;2022-12-18T06:38:03;51.20;;;18.73;;
32535;SDS011;18974;50.838;4.636;2022-12-18T06:40:28;49.67;;;17.77;;
32535;SDS011;18974;50.838;4.636;2022-12-18T06:42:54;46.75;;;17.95;;
32535;SDS011;18974;50.838;4.636;2022-12-18T06:45:20;41.10;;;17.65;;
32535;SDS011;18974;50.838;4.636;2022-12-18T06:47:45;51.28;;;18.80;;
32535;SDS011;18974;50.838;4.636;2022-12-18T06:50:11;52.53;;;18.30;;
32535;SDS011;18974;50.838;4.636;2022-12-18T06:52:38;51.35;;;18.63;;
32535;SDS011;18974;50.838;4.636;2022-12-18T06:55:05;49.92;;;19.20;;
32535;SDS011;18974;50.838;4.636;2022-12-18T06:57:31;45.88;;;18.90;;
32535;SDS011;18974;50.838;4.636;2022-12-18T06:59:57;48.70;;;18.63;;
32535;SDS011;18974;50.838;4.636;2022-12-18T07:02:23;43.50;;;16.98;;
32535;SDS011;18974;50.838;4.636;2022-12-18T07:04:48;43.92;;;16.55;;
32535;SDS011;18974;50.838;4.636;2022-12-18T07:07:14;45.47;;;15.90;;
32535;SDS011;18974;50.838;4.636;2022-12-18T07:09:39;42.83;;;17.35;;
32535;SDS011;18974;50.838;4.636;2022-12-18T07:12:05;51.53;;;17.52;;
32535;SDS011;18974;50.838;4.636;2022-12-18T07:14:31;47.33;;;17.23;;
32535;SDS011;18974;50.838;4.636;2022-12-18T07:16:57;42.85;;;17.00;;
32535;SDS011;18974;50.838;4.636;2022-12-18T07:19:22;45.15;;;18.02;;
32535;SDS011;18974;50.838;4.636;2022-12-18T07:21:49;51.53;;;17.80;;
32535;SDS011;18974;50.838;4.636;2022-12-18T07:24:15;49.28;;;17.67;;
32535;SDS011;18974;50.838;4.636;2022-12-18T07:26:41;48.75;;;18.75;;
32535;SDS011;18974;50.838;4.636;2022-12-18T07:29:06;50.97;;;18.73;;
32535;SDS011;18974;50.838;4.636;2022-12-18T07:31:32;49.78;;;18.52;;
32535;SDS011;18974;50.838;4.636;2022-12-18T07:33:58;53.22;;;20.23;;
32535;SDS011;18974;50.838;4.636;2022-12-18T07:36:24;56.22;;;19.88;;
32535;SDS011;18974;50.838;4.636;2022-12-18T07:38:49;47.47;;;16.50;;
32535;SDS011;18974;50.838;4.636;2022-12-18T07:41:16;45.60;;;17.15;;
32535;SDS011;18974;50.838;4.636;2022-12-18T07:43:43;46.35;;;16.60;;
32535;SDS011;18974;50.838;4.636;2022-12-18T07:46:09;49.28;;;18.52;;
32535;SDS011;18974;50.838;4.636;2022-12-18T07:48:36;57.15;;;19.77;;
32535;SDS011;18974;50.838;4.636;2022-12-18T07:51:03;48.35;;;18.50;;
32535;SDS011;18974;50.838;4.636;2022-12-18T07:53:30;58.58;;;20.50;;
32535;SDS011;18974;50.838;4.636;2022-12-18T07:55:56;53.97;;;19.02;;
32535;SDS011;18974;50.838;4.636;2022-12-18T07:58:28;53.88;;;19.83;;
32535;SDS011;18974;50.838;4.636;2022-12-18T08:00:54;43.10;;;16.73;;
32535;SDS011;18974;50.838;4.636;2022-12-18T08:03:26;52.45;;;18.65;;
32535;SDS011;18974;50.838;4.636;2022-12-18T08:05:52;52.53;;;19.27;;
32535;SDS011;18974;50.838;4.636;2022-12-18T08:08:17;61.95;;;19.83;;
32535;SDS011;18974;50.838;4.636;2022-12-18T08:10:43;52.15;;;18.75;;
32535;SDS011;18974;50.838;4.636;2022-12-18T08:13:09;50.88;;;18.33;;
32535;SDS011;18974;50.838;4.636;2022-12-18T08:15:34;44.28;;;16.92;;
32535;SDS011;18974;50.838;4.636;2022-12-18T08:18:00;42.95;;;16.98;;
32535;SDS011;18974;50.838;4.636;2022-12-18T08:20:26;49.08;;;18.08;;
32535;SDS011;18974;50.838;4.636;2022-12-18T08:22:52;49.38;;;17.80;;
32535;SDS011;18974;50.838;4.636;2022-12-18T08:25:17;48.05;;;17.23;;
32535;SDS011;18974;50.838;4.636;2022-12-18T08:27:43;54.97;;;17.80;;
32535;SDS011;18974;50.838;4.636;2022-12-18T08:30:09;54.72;;;19.42;;
32535;SDS011;18974;50.838;4.636;2022-12-18T08:32:35;53.65;;;20.13;;
32535;SDS011;18974;50.838;4.636;2022-12-18T08:35:01;47.13;;;19.63;;
32535;SDS011;18974;50.838;4.636;2022-12-18T08:37:27;57.30;;;19.95;;
32535;SDS011;18974;50.838;4.636;2022-12-18T08:39:52;49.63;;;18.95;;
32535;SDS011;18974;50.838;4.636;2022-12-18T08:42:18;53.70;;;20.15;;
32535;SDS011;18974;50.838;4.636;2022-12-18T08:45:02;50.10;;;18.42;;
32535;SDS011;18974;50.838;4.636;2022-12-18T08:47:28;43.45;;;17.27;;
32535;SDS011;18974;50.838;4.636;2022-12-18T08:49:54;44.97;;;17.80;;
32535;SDS011;18974;50.838;4.636;2022-12-18T08:52:19;47.42;;;16.27;;
32535;SDS011;18974;50.838;4.636;2022-12-18T08:54:45;39.97;;;17.25;;
32535;SDS011;18974;50.838;4.636;2022-12-18T08:57:11;41.03;;;16.00;;
32535;SDS011;18974;50.838;4.636;2022-12-18T08:59:36;39.72;;;15.32;;
32535;SDS011;18974;50.838;4.636;2022-12-18T09:02:02;45.30;;;16.48;;
32535;SDS011;18974;50.838;4.636;2022-12-18T09:04:28;42.42;;;16.40;;
32535;SDS011;18974;50.838;4.636;2022-12-18T09:06:54;38.55;;;16.10;;
32535;SDS011;18974;50.838;4.636;2022-12-18T09:09:20;43.28;;;15.77;;
32535;SDS011;18974;50.838;4.636;2022-12-18T09:11:46;37.05;;;15.32;;
32535;SDS011;18974;50.838;4.636;2022-12-18T09:14:11;39.58;;;16.00;;
32535;SDS011;18974;50.838;4.636;2022-12-18T09:16:37;43.17;;;16.35;;
32535;SDS011;18974;50.838;4.636;2022-12-18T09:19:03;42.95;;;15.25;;
32535;SDS011;18974;50.838;4.636;2022-12-18T09:21:31;40.92;;;14.98;;
32535;SDS011;18974;50.838;4.636;2022-12-18T09:23:58;41.85;;;15.30;;
32535;SDS011;18974;50.838;4.636;2022-12-18T09:26:25;43.28;;;17.70;;
32535;SDS011;18974;50.838;4.636;2022-12-18T09:28:51;43.38;;;17.55;;
32535;SDS011;18974;50.838;4.636;2022-12-18T09:31:18;45.22;;;17.48;;
32535;SDS011;18974;50.838;4.636;2022-12-18T09:33:45;40.55;;;17.13;;
32535;SDS011;18974;50.838;4.636;2022-12-18T09:36:12;46.92;;;17.90;;
32535;SDS011;18974;50.838;4.636;2022-12-18T09:38:39;42.72;;;16.45;;
32535;SDS011;18974;50.838;4.636;2022-12-18T09:41:17;44.75;;;17.80;;
32535;SDS011;18974;50.838;4.636;2022-12-18T09:44:00;45.33;;;19.10;;
32535;SDS011;18974;50.838;4.636;2022-12-18T09:46:30;44.20;;;17.48;;
32535;SDS011;18974;50.838;4.636;2022-12-18T09:49:00;37.08;;;16.30;;
32535;SDS011;18974;50.838;4.636;2022-12-18T09:51:36;35.95;;;15.73;;
32535;SDS011;18974;50.838;4.636;2022-12-18T09:54:11;35.83;;;15.32;;
32535;SDS011;18974;50.838;4.636;2022-12-18T09:56:42;34.05;;;13.80;;
32535;SDS011;18974;50.838;4.636;2022-12-18T09:59:18;36.08;;;14.98;;
32535;SDS011;18974;50.838;4.636;2022-12-18T10:01:44;31.20;;;14.05;;
32535;SDS011;18974;50.838;4.636;2022-12-18T10:04:10;34.95;;;15.50;;
32535;SDS011;18974;50.838;4.636;2022-12-18T10:16:54;48.45;;;17.63;;
32535;SDS011;18974;50.838;4.636;2022-12-18T10:27:30;37.28;;;15.40;;
32535;SDS011;18974;50.838;4.636;2022-12-18T10:29:56;35.08;;;14.60;;
32535;SDS011;18974;50.838;4.636;2022-12-18T10:32:23;37.45;;;15.20;;
32535;SDS011;18974;50.838;4.636;2022-12-18T10:34:52;38.42;;;16.75;;
32535;SDS011;18974;50.838;4.636;2022-12-18T10:37:20;36.63;;;16.25;;
32535;SDS011;18974;50.838;4.636;2022-12-18T10:40:06;34.42;;;16.58;;
32535;SDS011;18974;50.838;4.636;2022-12-18T10:42:38;31.05;;;14.55;;
32535;SDS011;18974;50.838;4.636;2022-12-18T10:45:15;34.72;;;16.00;;
32535;SDS011;18974;50.838;4.636;2022-12-18T10:47:51;36.78;;;15.05;;
32535;SDS011;18974;50.838;4.636;2022-12-18T10:50:30;33.63;;;14.02;;
32535;SDS011;18974;50.838;4.636;2022-12-18T10:53:01;28.15;;;13.23;;
32535;SDS011;18974;50.838;4.636;2022-12-18T10:55:36;28.50;;;12.73;;
32535;SDS011;18974;50.838;4.636;2022-12-18T10:59:05;28.90;;;12.82;;
32535;SDS011;18974;50.838;4.636;2022-12-18T11:03:39;26.98;;;12.18;;
32535;SDS011;18974;50.838;4.636;2022-12-18T11:06:14;24.80;;;11.70;;
32535;SDS011;18974;50.838;4.636;2022-12-18T11:08:40;26.67;;;11.85;;
32535;SDS011;18974;50.838;4.636;2022-12-18T11:11:19;28.33;;;13.13;;
32535;SDS011;18974;50.838;4.636;2022-12-18T11:13:56;27.40;;;12.10;;
32535;SDS011;18974;50.838;4.636;2022-12-18T11:16:26;25.92;;;12.00;;
32535;SDS011;18974;50.838;4.636;2022-12-18T11:18:53;29.55;;;12.23;;
32535;SDS011;18974;50.838;4.636;2022-12-18T11:21:20;24.23;;;12.13;;
32535;SDS011;18974;50.838;4.636;2022-12-18T11:23:52;26.75;;;11.27;;
32535;SDS011;18974;50.838;4.636;2022-12-18T11:26:18;30.05;;;12.35;;
32535;SDS011;18974;50.838;4.636;2022-12-18T11:28:52;25.80;;;12.02;;
32535;SDS011;18974;50.838;4.636;2022-12-18T11:31:32;30.40;;;13.13;;
32535;SDS011;18974;50.838;4.636;2022-12-18T11:36:26;28.45;;;13.73;;
32535;SDS011;18974;50.838;4.636;2022-12-18T11:38:56;28.27;;;14.52;;
32535;SDS011;18974;50.838;4.636;2022-12-18T11:41:28;38.72;;;15.85;;
32535;SDS011;18974;50.838;4.636;2022-12-18T11:44:24;35.70;;;15.10;;
32535;SDS011;18974;50.838;4.636;2022-12-18T11:47:02;29.33;;;13.77;;
32535;SDS011;18974;50.838;4.636;2022-12-18T11:49:34;26.75;;;12.57;;
32535;SDS011;18974;50.838;4.636;2022-12-18T11:54:42;27.88;;;12.52;;
32535;SDS011;18974;50.838;4.636;2022-12-18T12:13:23;31.67;;;13.98;;
32535;SDS011;18974;50.838;4.636;2022-12-18T12:16:22;28.25;;;15.50;;
32535;SDS011;18974;50.838;4.636;2022-12-18T12:21:47;33.10;;;17.30;;
32535;SDS011;18974;50.838;4.636;2022-12-18T12:30:22;35.88;;;17.70;;
32535;SDS011;18974;50.838;4.636;2022-12-18T12:35:53;33.17;;;15.63;;
32535;SDS011;18974;50.838;4.636;2022-12-18T12:41:12;39.53;;;18.38;;
32535;SDS011;18974;50.838;4.636;2022-12-18T12:44:01;44.55;;;19.23;;
32535;SDS011;18974;50.838;4.636;2022-12-18T12:46:32;46.38;;;21.35;;
32535;SDS011;18974;50.838;4.636;2022-12-18T12:49:03;31.75;;;16.20;;
32535;SDS011;18974;50.838;4.636;2022-12-18T12:51:35;38.88;;;17.83;;
32535;SDS011;18974;50.838;4.636;2022-12-18T12:54:04;34.85;;;16.15;;
32535;SDS011;18974;50.838;4.636;2022-12-18T12:56:43;29.02;;;14.15;;
32535;SDS011;18974;50.838;4.636;2022-12-18T12:59:19;34.40;;;15.70;;
32535;SDS011;18974;50.838;4.636;2022-12-18T13:02:00;33.33;;;15.63;;
32535;SDS011;18974;50.838;4.636;2022-12-18T13:04:56;34.55;;;14.30;;
32535;SDS011;18974;50.838;4.636;2022-12-18T13:10:14;30.17;;;14.77;;
32535;SDS011;18974;50.838;4.636;2022-12-18T13:13:05;31.85;;;14.43;;
32535;SDS011;18974;50.838;4.636;2022-12-18T13:15:44;29.23;;;15.23;;
32535;SDS011;18974;50.838;4.636;2022-12-18T13:18:19;44.75;;;18.10;;
32535;SDS011;18974;50.838;4.636;2022-12-18T13:25:59;30.08;;;14.43;;
32535;SDS011;18974;50.838;4.636;2022-12-18T13:31:01;31.08;;;15.02;;
32535;SDS011;18974;50.838;4.636;2022-12-18T13:36:12;29.13;;;13.73;;
32535;SDS011;18974;50.838;4.636;2022-12-18T13:41:36;31.25;;;14.27;;
32535;SDS011;18974;50.838;4.636;2022-12-18T13:44:24;33.72;;;14.30;;
32535;SDS011;18974;50.838;4.636;2022-12-18T13:47:05;33.92;;;14.35;;
32535;SDS011;18974;50.838;4.636;2022-12-18T13:49:50;31.85;;;14.05;;
32535;SDS011;18974;50.838;4.636;2022-12-18T13:52:20;31.08;;;13.30;;
32535;SDS011;18974;50.838;4.636;2022-12-18T13:54:53;37.63;;;14.63;;
32535;SDS011;18974;50.838;4.636;2022-12-18T13:57:27;33.13;;;13.93;;
32535;SDS011;18974;50.838;4.636;2022-12-18T14:00:17;34.22;;;15.70;;
32535;SDS011;18974;50.838;4.636;2022-12-18T14:02:50;35.08;;;14.35;;
32535;SDS011;18974;50.838;4.636;2022-12-18T14:05:26;37.70;;;16.42;;
32535;SDS011;18974;50.838;4.636;2022-12-18T14:07:53;33.97;;;14.38;;
32535;SDS011;18974;50.838;4.636;2022-12-18T14:10:24;31.70;;;14.98;;
32535;SDS011;18974;50.838;4.636;2022-12-18T14:12:50;29.67;;;14.90;;
32535;SDS011;18974;50.838;4.636;2022-12-18T14:17:52;38.85;;;17.33;;
32535;SDS011;18974;50.838;4.636;2022-12-18T14:20:20;35.65;;;17.52;;
32535;SDS011;18974;50.838;4.636;2022-12-18T14:22:48;37.03;;;15.32;;
32535;SDS011;18974;50.838;4.636;2022-12-18T14:25:22;37.35;;;15.95;;
32535;SDS011;18974;50.838;4.636;2022-12-18T14:27:52;40.13;;;16.52;;
32535;SDS011;18974;50.838;4.636;2022-12-18T14:30:44;27.73;;;12.57;;
32535;SDS011;18974;50.838;4.636;2022-12-18T14:33:12;37.28;;;15.75;;
32535;SDS011;18974;50.838;4.636;2022-12-18T14:35:56;35.65;;;15.63;;
32535;SDS011;18974;50.838;4.636;2022-12-18T14:38:26;39.13;;;16.30;;
32535;SDS011;18974;50.838;4.636;2022-12-18T14:40:54;34.08;;;15.23;;
32535;SDS011;18974;50.838;4.636;2022-12-18T14:43:25;36.78;;;16.95;;
32535;SDS011;18974;50.838;4.636;2022-12-18T14:45:52;36.03;;;16.63;;
32535;SDS011;18974;50.838;4.636;2022-12-18T14:50:54;38.47;;;16.48;;
32535;SDS011;18974;50.838;4.636;2022-12-18T14:53:55;43.90;;;16.50;;
32535;SDS011;18974;50.838;4.636;2022-12-18T14:56:35;37.83;;;15.35;;
32535;SDS011;18974;50.838;4.636;2022-12-18T14:59:03;42.20;;;15.40;;
32535;SDS011;18974;50.838;4.636;2022-12-18T15:03:59;40.97;;;16.50;;
32535;SDS011;18974;50.838;4.636;2022-12-18T15:06:30;34.25;;;15.32;;
32535;SDS011;18974;50.838;4.636;2022-12-18T15:09:02;40.17;;;16.92;;
32535;SDS011;18974;50.838;4.636;2022-12-18T15:11:35;38.75;;;16.75;;
32535;SDS011;18974;50.838;4.636;2022-12-18T15:14:22;33.35;;;15.68;;
32535;SDS011;18974;50.838;4.636;2022-12-18T15:16:54;41.30;;;16.73;;
32535;SDS011;18974;50.838;4.636;2022-12-18T15:19:20;35.97;;;16.05;;
32535;SDS011;18974;50.838;4.636;2022-12-18T15:21:53;37.55;;;16.17;;
32535;SDS011;18974;50.838;4.636;2022-12-18T15:24:24;35.45;;;16.27;;
32535;SDS011;18974;50.838;4.636;2022-12-18T15:26:54;37.58;;;15.32;;
32535;SDS011;18974;50.838;4.636;2022-12-18T15:29:21;39.92;;;16.38;;
32535;SDS011;18974;50.838;4.636;2022-12-18T15:32:04;37.90;;;15.52;;
32535;SDS011;18974;50.838;4.636;2022-12-18T15:34:40;35.15;;;16.55;;
32535;SDS011;18974;50.838;4.636;2022-12-18T15:37:07;40.92;;;17.63;;
32535;SDS011;18974;50.838;4.636;2022-12-18T15:39:35;41.17;;;17.20;;
32535;SDS011;18974;50.838;4.636;2022-12-18T15:42:01;41.95;;;16.40;;
32535;SDS011;18974;50.838;4.636;2022-12-18T15:44:45;38.22;;;16.20;;
32535;SDS011;18974;50.838;4.636;2022-12-18T15:47:12;44.65;;;17.13;;
32535;SDS011;18974;50.838;4.636;2022-12-18T15:49:38;39.00;;;18.08;;
32535;SDS011;18974;50.838;4.636;2022-12-18T15:52:04;40.05;;;17.33;;
32535;SDS011;18974;50.838;4.636;2022-12-18T15:54:30;38.25;;;17.98;;
32535;SDS011;18974;50.838;4.636;2022-12-18T15:57:15;39.45;;;16.88;;
32535;SDS011;18974;50.838;4.636;2022-12-18T15:59:54;31.08;;;12.90;;
32535;SDS011;18974;50.838;4.636;2022-12-18T16:02:22;40.13;;;17.13;;
32535;SDS011;18974;50.838;4.636;2022-12-18T16:04:50;38.42;;;16.88;;
32535;SDS011;18974;50.838;4.636;2022-12-18T16:07:17;37.10;;;16.45;;
32535;SDS011;18974;50.838;4.636;2022-12-18T16:09:42;36.95;;;16.45;;
32535;SDS011;18974;50.838;4.636;2022-12-18T16:12:19;41.22;;;17.45;;
32535;SDS011;18974;50.838;4.636;2022-12-18T16:14:47;40.97;;;17.48;;
32535;SDS011;18974;50.838;4.636;2022-12-18T16:17:13;41.25;;;18.23;;
32535;SDS011;18974;50.838;4.636;2022-12-18T16:19:39;35.83;;;16.38;;
32535;SDS011;18974;50.838;4.636;2022-12-18T16:22:05;38.25;;;17.30;;
32535;SDS011;18974;50.838;4.636;2022-12-18T16:24:36;38.70;;;16.92;;